Dryden Regional Airport
CYHD : now visible

Airfield :











YOU CAN JOIN US ON...

 
LOGIN :

Register | Disclaimer

   EN    FR    IT 

 









Legend :    VFR   Marginal VFR   IFR   Intensive IFR   Very Intensive IFR
Visi :
Ceiling :
>= 8 km
>= 3000ft
5 to 8 km
1000 to 3000 ft
1500m to 5 km
500 to 1000 ft
800 to 1500m
200 to 500 ft
< 800m
< 200 ft
Symbols :   Thunderstorms  Fog  Heavy snow  Heavy precipitations  Wind > 20 kt







- Airport Elevation : 1354 ft
- IATA code : YHD


CYHD - Dryden Regional

CURRENT METAR :
  • 162100Z AUTO 16012G17KT 9SM FEW130 28/16 A2989 RMK SLP124 DENSITY ALT 3200FT

EXPIRED METARs :
  • 162000Z AUTO 12013KT 9SM FEW120 28/18 A2990 RMK SLP128 DENSITY ALT 3100FT
  • 161900Z AUTO 14013KT 9SM CLR 27/18 A2991 RMK SLP133 DENSITY ALT 2900FT

TAF TAF CYHD
Valid from the 16 at 20:00 until the 17 at 08:00 UTC


161938Z 1620/1708 15012KT P6SM SKC RMK FCST BASED ON AUTO OBS. NXT FCST BY 170200Z
No reported NOTAMs for that airfield.



MET'MAP, your aeronautical weather chart ! - Copyright ORBIFLY December 2007 - Disclaimer

ORBIFLY MET'MAP TEAM :

Programming & Development : Alexandra Zaïnal
Concept & Development : Baudouin d'Aumeries
Co-Development & Prog : Marc-Olivier Méhu
Technical & hardware support : Manuel Goepfert

Contact : metmap@orbifly.com




SOURCES & CREDITS :

   NOAA       Earth
Advisory